sensor_id;sensor_type;location;lat;lon;timestamp;P1;durP1;ratioP1;P2;durP2;ratioP2
9128;SDS011;4599;50.906;6.786;2024-03-22T00:03:58;19.43;;;11.03;;
9128;SDS011;4599;50.906;6.786;2024-03-22T00:08:00;17.93;;;11.07;;
9128;SDS011;4599;50.906;6.786;2024-03-22T00:12:01;18.67;;;11.23;;
9128;SDS011;4599;50.906;6.786;2024-03-22T00:16:01;27.90;;;11.10;;
9128;SDS011;4599;50.906;6.786;2024-03-22T00:20:02;15.77;;;10.30;;
9128;SDS011;4599;50.906;6.786;2024-03-22T00:24:05;21.83;;;10.83;;
9128;SDS011;4599;50.906;6.786;2024-03-22T00:28:06;18.40;;;11.10;;
9128;SDS011;4599;50.906;6.786;2024-03-22T00:32:07;16.47;;;10.47;;
9128;SDS011;4599;50.906;6.786;2024-03-22T00:36:08;18.17;;;10.33;;
9128;SDS011;4599;50.906;6.786;2024-03-22T00:40:11;18.37;;;11.00;;
9128;SDS011;4599;50.906;6.786;2024-03-22T00:44:12;16.70;;;10.07;;
9128;SDS011;4599;50.906;6.786;2024-03-22T00:48:13;16.47;;;10.40;;
9128;SDS011;4599;50.906;6.786;2024-03-22T00:52:13;14.93;;;9.70;;
9128;SDS011;4599;50.906;6.786;2024-03-22T00:56:16;15.43;;;10.07;;
9128;SDS011;4599;50.906;6.786;2024-03-22T01:00:17;15.07;;;9.40;;
9128;SDS011;4599;50.906;6.786;2024-03-22T01:04:17;17.67;;;9.67;;
9128;SDS011;4599;50.906;6.786;2024-03-22T01:08:19;13.70;;;8.57;;
9128;SDS011;4599;50.906;6.786;2024-03-22T01:12:21;13.73;;;8.87;;
9128;SDS011;4599;50.906;6.786;2024-03-22T01:16:22;13.53;;;8.37;;
9128;SDS011;4599;50.906;6.786;2024-03-22T01:20:23;12.80;;;7.90;;
9128;SDS011;4599;50.906;6.786;2024-03-22T01:24:23;11.90;;;7.57;;
9128;SDS011;4599;50.906;6.786;2024-03-22T01:28:26;14.20;;;8.60;;
9128;SDS011;4599;50.906;6.786;2024-03-22T01:32:26;13.93;;;7.73;;
9128;SDS011;4599;50.906;6.786;2024-03-22T01:36:27;13.30;;;8.57;;
9128;SDS011;4599;50.906;6.786;2024-03-22T01:40:28;12.87;;;7.90;;
9128;SDS011;4599;50.906;6.786;2024-03-22T01:44:31;14.00;;;8.13;;
9128;SDS011;4599;50.906;6.786;2024-03-22T01:48:33;11.90;;;7.30;;
9128;SDS011;4599;50.906;6.786;2024-03-22T01:52:34;15.70;;;7.83;;
9128;SDS011;4599;50.906;6.786;2024-03-22T01:56:35;12.40;;;7.50;;
9128;SDS011;4599;50.906;6.786;2024-03-22T02:00:38;14.40;;;7.83;;
9128;SDS011;4599;50.906;6.786;2024-03-22T02:04:39;14.43;;;7.77;;
9128;SDS011;4599;50.906;6.786;2024-03-22T02:08:40;10.97;;;7.40;;
9128;SDS011;4599;50.906;6.786;2024-03-22T02:12:41;13.27;;;7.40;;
9128;SDS011;4599;50.906;6.786;2024-03-22T02:16:43;12.87;;;7.23;;
9128;SDS011;4599;50.906;6.786;2024-03-22T02:20:44;11.67;;;7.00;;
9128;SDS011;4599;50.906;6.786;2024-03-22T02:24:46;10.40;;;7.30;;
9128;SDS011;4599;50.906;6.786;2024-03-22T02:28:47;13.63;;;7.57;;
9128;SDS011;4599;50.906;6.786;2024-03-22T02:32:48;10.67;;;7.33;;
9128;SDS011;4599;50.906;6.786;2024-03-22T02:36:49;10.27;;;7.30;;
9128;SDS011;4599;50.906;6.786;2024-03-22T02:40:51;9.07;;;7.07;;
9128;SDS011;4599;50.906;6.786;2024-03-22T02:44:53;10.80;;;6.40;;
9128;SDS011;4599;50.906;6.786;2024-03-22T02:48:53;11.80;;;7.47;;
9128;SDS011;4599;50.906;6.786;2024-03-22T02:52:54;12.43;;;7.23;;
9128;SDS011;4599;50.906;6.786;2024-03-22T02:56:56;11.50;;;7.53;;
9128;SDS011;4599;50.906;6.786;2024-03-22T03:00:57;11.87;;;7.30;;
9128;SDS011;4599;50.906;6.786;2024-03-22T03:04:58;10.93;;;7.07;;
9128;SDS011;4599;50.906;6.786;2024-03-22T03:08:59;9.63;;;6.87;;
9128;SDS011;4599;50.906;6.786;2024-03-22T03:13:03;9.13;;;6.17;;
9128;SDS011;4599;50.906;6.786;2024-03-22T03:17:04;12.70;;;7.80;;
9128;SDS011;4599;50.906;6.786;2024-03-22T03:21:05;12.70;;;7.37;;
9128;SDS011;4599;50.906;6.786;2024-03-22T03:25:06;10.57;;;6.93;;
9128;SDS011;4599;50.906;6.786;2024-03-22T03:29:09;11.37;;;7.80;;
9128;SDS011;4599;50.906;6.786;2024-03-22T03:33:09;12.13;;;7.50;;
9128;SDS011;4599;50.906;6.786;2024-03-22T03:37:10;11.00;;;7.57;;
9128;SDS011;4599;50.906;6.786;2024-03-22T03:41:11;10.27;;;7.57;;
9128;SDS011;4599;50.906;6.786;2024-03-22T03:45:13;11.60;;;6.93;;
9128;SDS011;4599;50.906;6.786;2024-03-22T03:49:14;9.83;;;7.17;;
9128;SDS011;4599;50.906;6.786;2024-03-22T03:53:15;11.17;;;7.43;;
9128;SDS011;4599;50.906;6.786;2024-03-22T03:57:15;9.47;;;6.80;;
9128;SDS011;4599;50.906;6.786;2024-03-22T04:01:18;10.57;;;7.20;;
9128;SDS011;4599;50.906;6.786;2024-03-22T04:05:18;11.87;;;7.80;;
9128;SDS011;4599;50.906;6.786;2024-03-22T04:09:19;9.67;;;6.90;;
9128;SDS011;4599;50.906;6.786;2024-03-22T04:13:20;9.13;;;6.87;;
9128;SDS011;4599;50.906;6.786;2024-03-22T04:17:22;9.53;;;6.63;;
9128;SDS011;4599;50.906;6.786;2024-03-22T04:21:23;10.10;;;7.20;;
9128;SDS011;4599;50.906;6.786;2024-03-22T04:25:24;9.97;;;7.37;;
9128;SDS011;4599;50.906;6.786;2024-03-22T04:29:24;12.57;;;7.40;;
9128;SDS011;4599;50.906;6.786;2024-03-22T04:33:26;13.40;;;7.10;;
9128;SDS011;4599;50.906;6.786;2024-03-22T04:37:28;11.97;;;6.57;;
9128;SDS011;4599;50.906;6.786;2024-03-22T04:41:30;11.30;;;7.30;;
9128;SDS011;4599;50.906;6.786;2024-03-22T04:45:30;11.80;;;7.77;;
9128;SDS011;4599;50.906;6.786;2024-03-22T04:49:32;13.43;;;8.13;;
9128;SDS011;4599;50.906;6.786;2024-03-22T04:53:33;11.57;;;7.93;;
9128;SDS011;4599;50.906;6.786;2024-03-22T04:57:34;12.60;;;7.73;;
9128;SDS011;4599;50.906;6.786;2024-03-22T05:01:35;11.30;;;7.77;;
9128;SDS011;4599;50.906;6.786;2024-03-22T05:05:37;12.77;;;8.43;;
9128;SDS011;4599;50.906;6.786;2024-03-22T05:09:39;14.53;;;8.33;;
9128;SDS011;4599;50.906;6.786;2024-03-22T05:13:39;13.27;;;9.20;;
9128;SDS011;4599;50.906;6.786;2024-03-22T05:17:40;14.17;;;8.90;;
9128;SDS011;4599;50.906;6.786;2024-03-22T05:21:43;17.87;;;11.03;;
9128;SDS011;4599;50.906;6.786;2024-03-22T05:25:43;17.90;;;10.17;;
9128;SDS011;4599;50.906;6.786;2024-03-22T05:29:44;17.00;;;10.93;;
9128;SDS011;4599;50.906;6.786;2024-03-22T05:33:45;14.97;;;10.93;;
9128;SDS011;4599;50.906;6.786;2024-03-22T05:37:47;16.47;;;11.70;;
9128;SDS011;4599;50.906;6.786;2024-03-22T05:41:48;15.13;;;12.33;;
9128;SDS011;4599;50.906;6.786;2024-03-22T05:45:48;18.53;;;12.20;;
9128;SDS011;4599;50.906;6.786;2024-03-22T05:49:49;20.47;;;12.37;;
9128;SDS011;4599;50.906;6.786;2024-03-22T05:53:52;21.93;;;12.70;;
9128;SDS011;4599;50.906;6.786;2024-03-22T05:57:53;21.63;;;14.13;;
9128;SDS011;4599;50.906;6.786;2024-03-22T06:01:54;23.13;;;14.27;;
9128;SDS011;4599;50.906;6.786;2024-03-22T06:05:55;20.90;;;12.63;;
9128;SDS011;4599;50.906;6.786;2024-03-22T06:09:57;21.83;;;13.03;;
9128;SDS011;4599;50.906;6.786;2024-03-22T06:14:00;21.10;;;13.20;;
9128;SDS011;4599;50.906;6.786;2024-03-22T06:18:02;20.90;;;12.83;;
9128;SDS011;4599;50.906;6.786;2024-03-22T06:22:06;19.27;;;13.47;;
9128;SDS011;4599;50.906;6.786;2024-03-22T06:26:08;26.57;;;16.87;;
9128;SDS011;4599;50.906;6.786;2024-03-22T06:30:10;39.53;;;25.43;;
9128;SDS011;4599;50.906;6.786;2024-03-22T06:34:12;70.60;;;40.83;;
9128;SDS011;4599;50.906;6.786;2024-03-22T06:38:14;66.13;;;39.30;;
9128;SDS011;4599;50.906;6.786;2024-03-22T06:42:22;66.33;;;37.20;;
9128;SDS011;4599;50.906;6.786;2024-03-22T06:46:27;25.00;;;16.33;;
9128;SDS011;4599;50.906;6.786;2024-03-22T06:50:30;24.50;;;16.07;;
9128;SDS011;4599;50.906;6.786;2024-03-22T06:54:36;18.73;;;14.37;;
9128;SDS011;4599;50.906;6.786;2024-03-22T06:58:39;35.50;;;22.83;;
9128;SDS011;4599;50.906;6.786;2024-03-22T07:02:41;24.23;;;15.53;;
9128;SDS011;4599;50.906;6.786;2024-03-22T07:06:42;19.20;;;14.03;;
9128;SDS011;4599;50.906;6.786;2024-03-22T07:10:43;27.53;;;17.63;;
9128;SDS011;4599;50.906;6.786;2024-03-22T07:14:45;22.37;;;15.30;;
9128;SDS011;4599;50.906;6.786;2024-03-22T07:18:46;25.73;;;15.83;;
9128;SDS011;4599;50.906;6.786;2024-03-22T07:22:47;24.03;;;15.23;;
9128;SDS011;4599;50.906;6.786;2024-03-22T07:26:48;18.53;;;14.07;;
9128;SDS011;4599;50.906;6.786;2024-03-22T07:30:50;18.47;;;13.73;;
9128;SDS011;4599;50.906;6.786;2024-03-22T07:34:51;19.87;;;13.57;;
9128;SDS011;4599;50.906;6.786;2024-03-22T07:38:51;19.97;;;14.00;;
9128;SDS011;4599;50.906;6.786;2024-03-22T07:42:52;20.53;;;12.97;;
9128;SDS011;4599;50.906;6.786;2024-03-22T07:46:54;19.10;;;13.03;;
9128;SDS011;4599;50.906;6.786;2024-03-22T07:50:55;21.23;;;13.03;;
9128;SDS011;4599;50.906;6.786;2024-03-22T07:54:56;17.30;;;12.17;;
9128;SDS011;4599;50.906;6.786;2024-03-22T07:58:57;18.40;;;12.50;;
9128;SDS011;4599;50.906;6.786;2024-03-22T08:02:59;19.13;;;12.93;;
9128;SDS011;4599;50.906;6.786;2024-03-22T08:07:00;19.53;;;11.97;;
9128;SDS011;4599;50.906;6.786;2024-03-22T08:11:01;17.13;;;12.30;;
9128;SDS011;4599;50.906;6.786;2024-03-22T08:15:02;19.20;;;12.90;;
9128;SDS011;4599;50.906;6.786;2024-03-22T08:19:05;21.33;;;12.70;;
9128;SDS011;4599;50.906;6.786;2024-03-22T08:23:06;20.23;;;11.33;;
9128;SDS011;4599;50.906;6.786;2024-03-22T08:27:07;14.67;;;11.23;;
9128;SDS011;4599;50.906;6.786;2024-03-22T08:31:08;17.97;;;11.63;;
9128;SDS011;4599;50.906;6.786;2024-03-22T08:35:10;14.93;;;10.53;;
9128;SDS011;4599;50.906;6.786;2024-03-22T08:39:11;18.83;;;10.80;;
9128;SDS011;4599;50.906;6.786;2024-03-22T08:43:11;13.97;;;10.43;;
9128;SDS011;4599;50.906;6.786;2024-03-22T08:47:12;12.23;;;10.00;;
9128;SDS011;4599;50.906;6.786;2024-03-22T08:51:14;13.33;;;9.80;;
9128;SDS011;4599;50.906;6.786;2024-03-22T08:55:15;11.47;;;8.43;;
9128;SDS011;4599;50.906;6.786;2024-03-22T08:59:16;11.67;;;8.93;;
9128;SDS011;4599;50.906;6.786;2024-03-22T09:03:17;11.10;;;7.93;;
9128;SDS011;4599;50.906;6.786;2024-03-22T09:07:19;12.30;;;8.43;;
9128;SDS011;4599;50.906;6.786;2024-03-22T09:11:20;11.67;;;8.10;;
9128;SDS011;4599;50.906;6.786;2024-03-22T09:15:21;9.73;;;7.30;;
9128;SDS011;4599;50.906;6.786;2024-03-22T09:19:22;9.57;;;7.60;;
9128;SDS011;4599;50.906;6.786;2024-03-22T09:23:25;10.80;;;7.17;;
9128;SDS011;4599;50.906;6.786;2024-03-22T09:27:26;9.90;;;6.83;;
9128;SDS011;4599;50.906;6.786;2024-03-22T09:31:27;9.23;;;6.83;;
9128;SDS011;4599;50.906;6.786;2024-03-22T09:35:28;10.20;;;6.90;;
9128;SDS011;4599;50.906;6.786;2024-03-22T09:39:30;11.37;;;6.87;;
9128;SDS011;4599;50.906;6.786;2024-03-22T09:43:31;9.73;;;6.10;;
9128;SDS011;4599;50.906;6.786;2024-03-22T09:47:35;12.40;;;6.50;;
9128;SDS011;4599;50.906;6.786;2024-03-22T09:51:36;8.00;;;5.87;;
9128;SDS011;4599;50.906;6.786;2024-03-22T09:55:39;8.07;;;5.90;;
9128;SDS011;4599;50.906;6.786;2024-03-22T09:59:40;9.90;;;5.83;;
9128;SDS011;4599;50.906;6.786;2024-03-22T10:03:41;8.23;;;5.17;;
9128;SDS011;4599;50.906;6.786;2024-03-22T10:07:44;8.63;;;5.73;;
9128;SDS011;4599;50.906;6.786;2024-03-22T10:11:46;8.30;;;5.57;;
9128;SDS011;4599;50.906;6.786;2024-03-22T10:15:47;8.10;;;5.70;;
9128;SDS011;4599;50.906;6.786;2024-03-22T10:19:48;9.60;;;5.57;;
9128;SDS011;4599;50.906;6.786;2024-03-22T10:23:49;7.03;;;5.27;;
9128;SDS011;4599;50.906;6.786;2024-03-22T10:27:51;11.90;;;5.63;;
9128;SDS011;4599;50.906;6.786;2024-03-22T10:31:54;7.53;;;5.30;;
9128;SDS011;4599;50.906;6.786;2024-03-22T10:35:56;9.83;;;5.47;;
9128;SDS011;4599;50.906;6.786;2024-03-22T10:40:00;10.90;;;6.03;;
9128;SDS011;4599;50.906;6.786;2024-03-22T10:44:04;11.00;;;6.17;;
9128;SDS011;4599;50.906;6.786;2024-03-22T10:48:06;10.50;;;6.13;;
9128;SDS011;4599;50.906;6.786;2024-03-22T10:52:10;9.07;;;6.67;;
9128;SDS011;4599;50.906;6.786;2024-03-22T10:56:12;11.60;;;7.20;;
9128;SDS011;4599;50.906;6.786;2024-03-22T11:00:19;14.33;;;7.33;;
9128;SDS011;4599;50.906;6.786;2024-03-22T11:04:29;11.57;;;7.37;;
9128;SDS011;4599;50.906;6.786;2024-03-22T11:08:30;9.80;;;6.93;;
9128;SDS011;4599;50.906;6.786;2024-03-22T11:12:31;10.43;;;7.43;;
9128;SDS011;4599;50.906;6.786;2024-03-22T11:16:33;11.83;;;7.63;;
9128;SDS011;4599;50.906;6.786;2024-03-22T11:20:36;11.73;;;8.17;;
9128;SDS011;4599;50.906;6.786;2024-03-22T11:24:37;11.40;;;8.27;;
9128;SDS011;4599;50.906;6.786;2024-03-22T11:28:38;10.27;;;8.10;;
9128;SDS011;4599;50.906;6.786;2024-03-22T11:32:40;12.80;;;8.57;;
9128;SDS011;4599;50.906;6.786;2024-03-22T11:36:42;12.03;;;8.83;;
9128;SDS011;4599;50.906;6.786;2024-03-22T11:40:43;13.83;;;8.10;;
9128;SDS011;4599;50.906;6.786;2024-03-22T11:44:45;10.60;;;8.30;;
9128;SDS011;4599;50.906;6.786;2024-03-22T11:48:51;12.10;;;8.10;;
9128;SDS011;4599;50.906;6.786;2024-03-22T11:52:52;10.93;;;8.77;;
9128;SDS011;4599;50.906;6.786;2024-03-22T11:56:55;14.57;;;8.33;;
9128;SDS011;4599;50.906;6.786;2024-03-22T12:00:55;15.27;;;9.13;;
9128;SDS011;4599;50.906;6.786;2024-03-22T12:04:58;10.80;;;8.67;;
9128;SDS011;4599;50.906;6.786;2024-03-22T12:08:59;16.10;;;8.90;;
9128;SDS011;4599;50.906;6.786;2024-03-22T12:12:59;13.50;;;8.83;;
9128;SDS011;4599;50.906;6.786;2024-03-22T12:17:01;10.13;;;8.00;;
9128;SDS011;4599;50.906;6.786;2024-03-22T12:21:04;14.63;;;8.10;;
9128;SDS011;4599;50.906;6.786;2024-03-22T12:25:05;11.60;;;7.73;;
9128;SDS011;4599;50.906;6.786;2024-03-22T12:29:06;10.43;;;7.73;;
9128;SDS011;4599;50.906;6.786;2024-03-22T12:33:07;12.53;;;8.03;;
9128;SDS011;4599;50.906;6.786;2024-03-22T12:37:10;12.70;;;7.47;;
9128;SDS011;4599;50.906;6.786;2024-03-22T12:41:10;10.80;;;6.47;;
9128;SDS011;4599;50.906;6.786;2024-03-22T12:45:12;10.97;;;7.60;;
9128;SDS011;4599;50.906;6.786;2024-03-22T12:49:17;12.73;;;5.97;;
9128;SDS011;4599;50.906;6.786;2024-03-22T12:53:20;8.87;;;6.53;;
9128;SDS011;4599;50.906;6.786;2024-03-22T12:57:22;12.53;;;7.37;;
9128;SDS011;4599;50.906;6.786;2024-03-22T13:01:23;9.87;;;6.90;;
9128;SDS011;4599;50.906;6.786;2024-03-22T13:05:25;10.20;;;7.03;;
9128;SDS011;4599;50.906;6.786;2024-03-22T13:09:27;12.90;;;8.27;;
9128;SDS011;4599;50.906;6.786;2024-03-22T13:13:28;11.60;;;7.63;;
9128;SDS011;4599;50.906;6.786;2024-03-22T13:17:29;12.00;;;8.00;;
9128;SDS011;4599;50.906;6.786;2024-03-22T13:21:30;10.40;;;7.77;;
9128;SDS011;4599;50.906;6.786;2024-03-22T13:25:32;16.90;;;9.30;;
9128;SDS011;4599;50.906;6.786;2024-03-22T13:29:35;13.80;;;9.33;;
9128;SDS011;4599;50.906;6.786;2024-03-22T13:33:35;11.60;;;9.17;;
9128;SDS011;4599;50.906;6.786;2024-03-22T13:37:36;15.97;;;9.43;;
9128;SDS011;4599;50.906;6.786;2024-03-22T13:41:39;15.13;;;9.73;;
9128;SDS011;4599;50.906;6.786;2024-03-22T13:45:40;14.43;;;9.50;;
9128;SDS011;4599;50.906;6.786;2024-03-22T13:49:43;11.70;;;9.47;;
9128;SDS011;4599;50.906;6.786;2024-03-22T13:53:44;15.67;;;9.23;;
9128;SDS011;4599;50.906;6.786;2024-03-22T13:57:46;15.27;;;10.17;;
9128;SDS011;4599;50.906;6.786;2024-03-22T14:01:47;16.53;;;11.87;;
9128;SDS011;4599;50.906;6.786;2024-03-22T14:05:47;13.13;;;9.93;;
9128;SDS011;4599;50.906;6.786;2024-03-22T14:09:49;14.30;;;9.33;;
9128;SDS011;4599;50.906;6.786;2024-03-22T14:13:53;13.97;;;9.93;;
9128;SDS011;4599;50.906;6.786;2024-03-22T14:17:54;14.03;;;10.07;;
9128;SDS011;4599;50.906;6.786;2024-03-22T14:21:54;12.73;;;9.97;;
9128;SDS011;4599;50.906;6.786;2024-03-22T14:25:56;13.07;;;9.40;;
9128;SDS011;4599;50.906;6.786;2024-03-22T14:30:02;12.77;;;9.30;;
9128;SDS011;4599;50.906;6.786;2024-03-22T14:34:04;10.70;;;8.80;;
9128;SDS011;4599;50.906;6.786;2024-03-22T14:38:06;15.33;;;10.00;;
9128;SDS011;4599;50.906;6.786;2024-03-22T14:42:07;13.87;;;8.50;;
9128;SDS011;4599;50.906;6.786;2024-03-22T14:46:09;10.20;;;7.60;;
9128;SDS011;4599;50.906;6.786;2024-03-22T14:50:10;9.73;;;7.03;;
9128;SDS011;4599;50.906;6.786;2024-03-22T14:54:10;9.07;;;7.20;;
9128;SDS011;4599;50.906;6.786;2024-03-22T14:58:11;11.13;;;7.93;;
9128;SDS011;4599;50.906;6.786;2024-03-22T15:02:14;10.67;;;8.63;;
9128;SDS011;4599;50.906;6.786;2024-03-22T15:06:15;10.97;;;8.53;;
9128;SDS011;4599;50.906;6.786;2024-03-22T15:10:18;11.03;;;8.10;;
9128;SDS011;4599;50.906;6.786;2024-03-22T15:14:19;12.57;;;9.10;;
9128;SDS011;4599;50.906;6.786;2024-03-22T15:18:22;14.27;;;9.40;;
9128;SDS011;4599;50.906;6.786;2024-03-22T15:22:23;12.50;;;9.57;;
9128;SDS011;4599;50.906;6.786;2024-03-22T15:26:24;12.20;;;9.47;;
9128;SDS011;4599;50.906;6.786;2024-03-22T15:30:25;14.67;;;9.73;;
9128;SDS011;4599;50.906;6.786;2024-03-22T15:34:27;15.80;;;9.90;;
9128;SDS011;4599;50.906;6.786;2024-03-22T15:38:28;15.17;;;10.60;;
9128;SDS011;4599;50.906;6.786;2024-03-22T15:42:28;14.63;;;10.83;;
9128;SDS011;4599;50.906;6.786;2024-03-22T15:46:29;13.63;;;10.43;;
9128;SDS011;4599;50.906;6.786;2024-03-22T15:50:32;15.40;;;11.23;;
9128;SDS011;4599;50.906;6.786;2024-03-22T15:54:32;13.57;;;10.50;;
9128;SDS011;4599;50.906;6.786;2024-03-22T15:58:33;17.20;;;10.67;;
9128;SDS011;4599;50.906;6.786;2024-03-22T16:02:35;12.73;;;10.80;;
9128;SDS011;4599;50.906;6.786;2024-03-22T16:06:37;15.37;;;11.20;;
9128;SDS011;4599;50.906;6.786;2024-03-22T16:10:37;12.17;;;10.80;;
9128;SDS011;4599;50.906;6.786;2024-03-22T16:14:38;13.93;;;10.33;;
9128;SDS011;4599;50.906;6.786;2024-03-22T16:18:39;14.97;;;11.10;;
9128;SDS011;4599;50.906;6.786;2024-03-22T16:22:41;16.73;;;10.47;;
9128;SDS011;4599;50.906;6.786;2024-03-22T16:26:42;15.60;;;10.50;;
9128;SDS011;4599;50.906;6.786;2024-03-22T16:30:43;14.57;;;10.70;;
9128;SDS011;4599;50.906;6.786;2024-03-22T16:34:44;22.57;;;11.43;;
9128;SDS011;4599;50.906;6.786;2024-03-22T16:38:48;15.50;;;11.10;;
9128;SDS011;4599;50.906;6.786;2024-03-22T16:42:48;16.83;;;10.77;;
9128;SDS011;4599;50.906;6.786;2024-03-22T16:46:50;17.80;;;11.27;;
9128;SDS011;4599;50.906;6.786;2024-03-22T16:50:51;16.00;;;12.30;;
9128;SDS011;4599;50.906;6.786;2024-03-22T16:54:53;17.03;;;12.20;;
9128;SDS011;4599;50.906;6.786;2024-03-22T16:58:54;16.37;;;12.43;;
9128;SDS011;4599;50.906;6.786;2024-03-22T17:02:55;13.43;;;11.30;;
9128;SDS011;4599;50.906;6.786;2024-03-22T17:06:56;19.87;;;12.43;;
9128;SDS011;4599;50.906;6.786;2024-03-22T17:10:58;16.30;;;12.70;;
9128;SDS011;4599;50.906;6.786;2024-03-22T17:14:59;21.77;;;14.13;;
9128;SDS011;4599;50.906;6.786;2024-03-22T17:18:59;20.07;;;14.97;;
9128;SDS011;4599;50.906;6.786;2024-03-22T17:23:00;24.97;;;18.03;;
9128;SDS011;4599;50.906;6.786;2024-03-22T17:27:02;23.50;;;17.23;;
9128;SDS011;4599;50.906;6.786;2024-03-22T17:31:03;23.80;;;17.47;;
9128;SDS011;4599;50.906;6.786;2024-03-22T17:35:05;20.87;;;17.07;;
9128;SDS011;4599;50.906;6.786;2024-03-22T17:39:06;17.73;;;15.23;;
9128;SDS011;4599;50.906;6.786;2024-03-22T17:43:09;18.13;;;13.20;;
9128;SDS011;4599;50.906;6.786;2024-03-22T17:47:10;13.23;;;11.53;;
9128;SDS011;4599;50.906;6.786;2024-03-22T17:51:11;15.17;;;11.07;;
9128;SDS011;4599;50.906;6.786;2024-03-22T17:55:12;11.63;;;9.33;;
9128;SDS011;4599;50.906;6.786;2024-03-22T17:59:14;10.90;;;9.77;;
9128;SDS011;4599;50.906;6.786;2024-03-22T18:03:15;13.90;;;10.93;;
9128;SDS011;4599;50.906;6.786;2024-03-22T18:07:17;13.07;;;9.93;;
9128;SDS011;4599;50.906;6.786;2024-03-22T18:11:17;13.63;;;9.33;;
9128;SDS011;4599;50.906;6.786;2024-03-22T18:15:20;11.63;;;7.50;;
9128;SDS011;4599;50.906;6.786;2024-03-22T18:19:21;8.63;;;7.60;;
9128;SDS011;4599;50.906;6.786;2024-03-22T18:23:23;9.57;;;7.43;;
9128;SDS011;4599;50.906;6.786;2024-03-22T18:27:24;8.57;;;7.33;;
9128;SDS011;4599;50.906;6.786;2024-03-22T18:31:26;8.40;;;7.50;;
9128;SDS011;4599;50.906;6.786;2024-03-22T18:35:27;8.23;;;7.43;;
9128;SDS011;4599;50.906;6.786;2024-03-22T18:39:29;8.83;;;7.17;;
9128;SDS011;4599;50.906;6.786;2024-03-22T18:43:30;7.17;;;6.47;;
9128;SDS011;4599;50.906;6.786;2024-03-22T18:47:32;6.20;;;5.60;;
9128;SDS011;4599;50.906;6.786;2024-03-22T18:51:33;6.30;;;5.70;;
9128;SDS011;4599;50.906;6.786;2024-03-22T18:55:33;6.10;;;5.50;;
9128;SDS011;4599;50.906;6.786;2024-03-22T18:59:34;6.40;;;5.80;;
9128;SDS011;4599;50.906;6.786;2024-03-22T19:03:36;6.60;;;5.47;;
9128;SDS011;4599;50.906;6.786;2024-03-22T19:07:37;5.87;;;5.17;;
9128;SDS011;4599;50.906;6.786;2024-03-22T19:11:38;6.20;;;5.70;;
9128;SDS011;4599;50.906;6.786;2024-03-22T19:15:38;6.67;;;5.63;;
9128;SDS011;4599;50.906;6.786;2024-03-22T19:19:41;5.63;;;5.03;;
9128;SDS011;4599;50.906;6.786;2024-03-22T19:23:41;5.53;;;5.03;;
9128;SDS011;4599;50.906;6.786;2024-03-22T19:27:42;7.57;;;6.20;;
9128;SDS011;4599;50.906;6.786;2024-03-22T19:31:44;7.27;;;6.43;;
9128;SDS011;4599;50.906;6.786;2024-03-22T19:35:46;7.13;;;6.43;;
9128;SDS011;4599;50.906;6.786;2024-03-22T19:39:47;9.27;;;6.53;;
9128;SDS011;4599;50.906;6.786;2024-03-22T19:43:48;7.07;;;6.37;;
9128;SDS011;4599;50.906;6.786;2024-03-22T19:47:48;8.43;;;6.50;;
9128;SDS011;4599;50.906;6.786;2024-03-22T19:51:51;7.57;;;6.87;;
9128;SDS011;4599;50.906;6.786;2024-03-22T19:55:51;7.03;;;6.33;;
9128;SDS011;4599;50.906;6.786;2024-03-22T19:59:52;7.87;;;7.07;;
9128;SDS011;4599;50.906;6.786;2024-03-22T20:03:53;8.17;;;7.10;;
9128;SDS011;4599;50.906;6.786;2024-03-22T20:07:55;7.70;;;7.00;;
9128;SDS011;4599;50.906;6.786;2024-03-22T20:11:56;7.10;;;6.40;;
9128;SDS011;4599;50.906;6.786;2024-03-22T20:15:57;7.87;;;7.07;;
9128;SDS011;4599;50.906;6.786;2024-03-22T20:19:57;7.60;;;6.80;;
9128;SDS011;4599;50.906;6.786;2024-03-22T20:24:00;7.87;;;7.17;;
9128;SDS011;4599;50.906;6.786;2024-03-22T20:28:00;7.73;;;6.93;;
9128;SDS011;4599;50.906;6.786;2024-03-22T20:32:01;8.07;;;7.27;;
9128;SDS011;4599;50.906;6.786;2024-03-22T20:36:03;8.03;;;7.23;;
9128;SDS011;4599;50.906;6.786;2024-03-22T20:40:06;7.77;;;7.07;;
